Time;durP1;ratioP1;P1;durP2;ratioP2;P2;SDS_P1;SDS_P2;PMS_P1;PMS_P2;Temp;Humidity;BMP_temperature;BMP_pressure;BME280_temperature;BME280_humidity;BME280_pressure;Samples;Min_cycle;Max_cycle;Signal;HPM_P1;HPM_P2
2023/07/04 00:01:04;;;;;;;12.15;1.67;;;;;;;;;;4942664;28;20126;-69
2023/07/04 00:03:33;;;;;;;12.00;1.60;;;;;;;;;;4940598;28;20042;-70
2023/07/04 00:05:58;;;;;;;10.73;2.35;;;;;;;;;;4939917;28;20551;-69
2023/07/04 00:08:25;;;;;;;12.20;2.08;;;;;;;;;;4941606;28;20039;-70
2023/07/04 00:10:51;;;;;;;9.32;1.30;;;;;;;;;;4941536;28;20034;-70
2023/07/04 00:13:19;;;;;;;12.40;1.88;;;;;;;;;;4942965;28;20101;-70
2023/07/04 00:15:45;;;;;;;8.63;1.52;;;;;;;;;;4941142;28;20045;-70
2023/07/04 00:18:10;;;;;;;13.13;2.75;;;;;;;;;;4940169;28;22314;-71
2023/07/04 00:20:37;;;;;;;8.88;1.90;;;;;;;;;;4940428;28;20042;-68
2023/07/04 00:23:02;;;;;;;9.75;1.85;;;;;;;;;;4942064;28;21208;-71
2023/07/04 00:25:28;;;;;;;12.02;1.60;;;;;;;;;;4940765;28;20043;-69
2023/07/04 00:27:53;;;;;;;10.63;1.75;;;;;;;;;;4940495;28;20050;-70
2023/07/04 00:30:20;;;;;;;9.68;1.60;;;;;;;;;;4908307;28;20035;-71
2023/07/04 00:32:48;;;;;;;11.13;2.00;;;;;;;;;;4940229;28;20043;-71
2023/07/04 00:35:13;;;;;;;8.15;1.55;;;;;;;;;;4941504;28;20046;-69
2023/07/04 00:37:39;;;;;;;11.75;1.60;;;;;;;;;;4919466;28;20042;-70
2023/07/04 00:40:12;;;;;;;6.88;1.50;;;;;;;;;;4940240;28;20039;-72
2023/07/04 00:42:37;;;;;;;12.10;1.55;;;;;;;;;;4940403;28;20043;-70
2023/07/04 00:45:19;;;;;;;9.27;1.85;;;;;;;;;;4941669;28;22368;-71
2023/07/04 00:47:52;;;;;;;;;;;;;;;;;;4938921;28;20042;-69
2023/07/04 00:50:19;;;;;;;12.88;1.70;;;;;;;;;;4939234;28;20302;-71
2023/07/04 00:52:45;;;;;;;10.77;1.85;;;;;;;;;;4930923;28;20499;-72
2023/07/04 00:55:11;;;;;;;10.90;1.90;;;;;;;;;;4939672;28;20562;-70
2023/07/04 00:57:37;;;;;;;10.88;1.67;;;;;;;;;;4941450;28;20033;-70
2023/07/04 01:00:20;;;;;;;12.52;2.05;;;;;;;;;;4940716;28;20483;-72
2023/07/04 01:02:49;;;;;;;11.75;1.63;;;;;;;;;;4940350;28;20996;-71
2023/07/04 01:05:19;;;;;;;15.98;1.88;;;;;;;;;;4940486;28;20205;-69
2023/07/04 01:08:04;;;;;;;9.77;1.48;;;;;;;;;;4940295;28;20046;-69
2023/07/04 01:10:30;;;;;;;14.45;2.00;;;;;;;;;;4939677;28;20038;-69
2023/07/04 01:12:55;;;;;;;11.55;1.50;;;;;;;;;;4933577;28;20042;-71
2023/07/04 01:15:23;;;;;;;14.65;2.55;;;;;;;;;;4940631;28;20038;-70
2023/07/04 01:17:51;;;;;;;14.88;2.00;;;;;;;;;;4940095;28;20073;-70
2023/07/04 01:20:16;;;;;;;14.80;1.95;;;;;;;;;;4940825;28;20089;-71
2023/07/04 01:22:47;;;;;;;17.27;2.30;;;;;;;;;;4939116;28;20050;-70
2023/07/04 01:25:28;;;;;;;12.77;1.88;;;;;;;;;;4938669;28;20790;-68
2023/07/04 01:27:59;;;;;;;14.70;1.90;;;;;;;;;;4940064;28;20065;-70
2023/07/04 01:30:25;;;;;;;9.90;1.77;;;;;;;;;;4940069;28;20035;-69
2023/07/04 01:32:53;;;;;;;15.48;2.08;;;;;;;;;;4917492;28;20058;-69
2023/07/04 01:35:19;;;;;;;19.10;1.70;;;;;;;;;;4939035;28;20046;-70
2023/07/04 01:37:44;;;;;;;11.20;1.60;;;;;;;;;;4938480;28;20030;-70
2023/07/04 01:40:10;;;;;;;16.70;1.75;;;;;;;;;;4939770;28;20038;-68
2023/07/04 01:42:36;;;;;;;13.13;2.13;;;;;;;;;;4936876;28;20459;-68
2023/07/04 01:45:03;;;;;;;18.10;2.60;;;;;;;;;;4939408;28;20039;-70
2023/07/04 01:47:28;;;;;;;15.02;1.88;;;;;;;;;;4938777;28;20030;-71
2023/07/04 01:49:54;;;;;;;9.90;2.10;;;;;;;;;;4940092;28;20491;-70
2023/07/04 01:52:20;;;;;;;9.30;2.05;;;;;;;;;;4938462;28;20034;-70
2023/07/04 01:54:45;;;;;;;15.30;2.53;;;;;;;;;;4915678;28;21717;-72
2023/07/04 01:57:11;;;;;;;15.35;2.67;;;;;;;;;;4935167;28;20077;-67
2023/07/04 01:59:37;;;;;;;16.52;2.35;;;;;;;;;;4934452;28;20045;-70
2023/07/04 02:02:02;;;;;;;21.95;2.50;;;;;;;;;;4933510;28;20035;-66
2023/07/04 02:04:30;;;;;;;12.70;1.83;;;;;;;;;;4936295;28;20034;-70
2023/07/04 02:06:57;;;;;;;19.23;2.40;;;;;;;;;;4931019;28;20038;-68
2023/07/04 02:09:24;;;;;;;15.45;2.20;;;;;;;;;;4901618;28;20046;-68
2023/07/04 02:11:49;;;;;;;15.18;1.98;;;;;;;;;;4934799;28;20042;-71
2023/07/04 02:14:15;;;;;;;25.33;2.97;;;;;;;;;;4935013;28;20039;-68
2023/07/04 02:16:40;;;;;;;13.00;2.45;;;;;;;;;;4931444;28;20131;-71
2023/07/04 02:19:08;;;;;;;16.35;2.05;;;;;;;;;;4934466;28;20392;-71
2023/07/04 02:21:34;;;;;;;18.30;2.50;;;;;;;;;;4934615;28;20042;-69
2023/07/04 02:24:00;;;;;;;12.82;1.83;;;;;;;;;;4933834;28;20034;-69
2023/07/04 02:26:25;;;;;;;10.07;1.80;;;;;;;;;;4933596;28;22165;-69
2023/07/04 02:28:51;;;;;;;14.52;1.98;;;;;;;;;;4932655;28;20479;-68
2023/07/04 02:31:16;;;;;;;13.93;2.45;;;;;;;;;;4933976;28;20098;-69
2023/07/04 02:33:41;;;;;;;11.52;1.70;;;;;;;;;;4935549;28;20150;-69
2023/07/04 02:36:11;;;;;;;12.23;2.65;;;;;;;;;;4933658;28;20031;-70
2023/07/04 02:38:36;;;;;;;15.15;1.90;;;;;;;;;;4913100;28;20039;-69
2023/07/04 02:41:02;;;;;;;12.93;2.00;;;;;;;;;;4935080;28;20039;-69
2023/07/04 02:43:27;;;;;;;13.93;1.80;;;;;;;;;;4921364;28;20122;-67
2023/07/04 02:45:52;;;;;;;20.35;2.33;;;;;;;;;;4933821;28;20047;-70
2023/07/04 02:48:19;;;;;;;17.88;2.40;;;;;;;;;;4931505;28;20063;-70
2023/07/04 02:50:44;;;;;;;9.70;1.50;;;;;;;;;;4934968;28;20034;-70
2023/07/04 02:53:10;;;;;;;10.55;1.80;;;;;;;;;;4933232;28;20045;-70
2023/07/04 02:55:37;;;;;;;12.43;1.77;;;;;;;;;;4935642;28;20114;-68
2023/07/04 02:58:03;;;;;;;11.07;2.00;;;;;;;;;;4938415;28;21775;-70
2023/07/04 03:00:28;;;;;;;14.57;2.40;;;;;;;;;;4937279;28;20069;-70
2023/07/04 03:02:56;;;;;;;15.95;2.35;;;;;;;;;;4934402;28;20047;-70
2023/07/04 03:05:22;;;;;;;11.32;2.03;;;;;;;;;;4938628;28;20046;-68
2023/07/04 03:07:47;;;;;;;15.25;2.25;;;;;;;;;;4939586;28;20035;-69
2023/07/04 03:10:14;;;;;;;9.13;1.70;;;;;;;;;;4936544;28;20109;-67
2023/07/04 03:12:40;;;;;;;18.15;2.47;;;;;;;;;;4939654;28;20039;-69
2023/07/04 03:15:08;;;;;;;15.85;2.60;;;;;;;;;;4938996;28;20039;-68
2023/07/04 03:17:33;;;;;;;10.48;2.08;;;;;;;;;;4920630;28;20102;-71
2023/07/04 03:19:59;;;;;;;15.70;2.83;;;;;;;;;;4937790;28;20058;-70
2023/07/04 03:22:24;;;;;;;10.50;2.20;;;;;;;;;;4917031;28;20043;-70
2023/07/04 03:24:49;;;;;;;19.45;2.78;;;;;;;;;;4917944;28;20047;-70
2023/07/04 03:27:15;;;;;;;15.82;2.72;;;;;;;;;;4939567;28;20432;-70
2023/07/04 03:29:40;;;;;;;16.77;2.10;;;;;;;;;;4923241;28;20046;-69
2023/07/04 03:32:05;;;;;;;15.30;2.63;;;;;;;;;;4935851;28;20130;-68
2023/07/04 03:34:31;;;;;;;13.10;2.55;;;;;;;;;;4942051;28;20130;-72
2023/07/04 03:36:56;;;;;;;14.73;2.30;;;;;;;;;;4942381;28;20033;-68
2023/07/04 03:39:21;;;;;;;16.15;2.70;;;;;;;;;;4942400;28;20125;-68
2023/07/04 03:41:46;;;;;;;18.63;3.22;;;;;;;;;;4942876;28;20546;-67
2023/07/04 03:44:12;;;;;;;19.00;2.80;;;;;;;;;;4942815;28;20042;-70
2023/07/04 03:46:37;;;;;;;22.40;3.13;;;;;;;;;;4942852;28;21072;-70
2023/07/04 03:49:02;;;;;;;16.58;2.75;;;;;;;;;;4941086;28;20119;-68
2023/07/04 03:51:28;;;;;;;18.60;2.88;;;;;;;;;;4942181;28;20539;-71
2023/07/04 03:53:53;;;;;;;18.40;2.50;;;;;;;;;;4931431;28;20066;-68
2023/07/04 03:56:18;;;;;;;18.58;2.63;;;;;;;;;;4941677;28;20043;-71
2023/07/04 03:58:43;;;;;;;20.50;2.67;;;;;;;;;;4940323;28;20118;-69
2023/07/04 04:01:09;;;;;;;12.35;2.45;;;;;;;;;;4941277;28;20141;-70
2023/07/04 04:03:38;;;;;;;16.40;2.78;;;;;;;;;;4922510;28;20614;-70
2023/07/04 04:06:07;;;;;;;20.17;2.70;;;;;;;;;;4920828;28;20050;-70
2023/07/04 04:08:32;;;;;;;14.48;2.97;;;;;;;;;;4936515;28;20038;-68
2023/07/04 04:10:58;;;;;;;19.58;2.90;;;;;;;;;;4942674;28;20127;-70
2023/07/04 04:13:23;;;;;;;23.33;3.22;;;;;;;;;;4941104;28;20047;-69
2023/07/04 04:15:50;;;;;;;19.13;3.42;;;;;;;;;;4940185;28;20035;-71
2023/07/04 04:18:15;;;;;;;18.08;2.50;;;;;;;;;;4940304;28;20031;-71
2023/07/04 04:20:40;;;;;;;16.38;2.60;;;;;;;;;;4941511;28;20512;-69
2023/07/04 04:23:06;;;;;;;13.43;2.65;;;;;;;;;;4941135;28;20117;-71
2023/07/04 04:25:38;;;;;;;15.15;2.80;;;;;;;;;;4940784;28;20080;-70
2023/07/04 04:28:03;;;;;;;15.10;2.50;;;;;;;;;;4940992;28;20086;-71
2023/07/04 04:30:29;;;;;;;20.20;2.95;;;;;;;;;;4925006;28;20035;-66
2023/07/04 04:32:56;;;;;;;13.40;2.75;;;;;;;;;;4940250;28;20105;-69
2023/07/04 04:35:25;;;;;;;16.52;3.03;;;;;;;;;;4941280;28;20039;-68
2023/07/04 04:37:53;;;;;;;18.23;2.95;;;;;;;;;;4915291;28;20034;-73
2023/07/04 04:40:19;;;;;;;17.75;2.65;;;;;;;;;;4940778;28;20031;-71
2023/07/04 04:42:44;;;;;;;18.33;2.70;;;;;;;;;;4940477;28;20781;-71
2023/07/04 04:45:11;;;;;;;24.20;3.38;;;;;;;;;;4940662;28;20456;-68
2023/07/04 04:47:37;;;;;;;17.88;2.92;;;;;;;;;;4940897;28;20047;-70
2023/07/04 04:50:02;;;;;;;15.20;2.70;;;;;;;;;;4939376;28;20043;-73
2023/07/04 04:52:29;;;;;;;22.30;3.17;;;;;;;;;;4920969;28;20042;-69
2023/07/04 04:54:55;;;;;;;18.05;2.97;;;;;;;;;;4938311;28;20047;-69
2023/07/04 04:57:23;;;;;;;14.98;3.10;;;;;;;;;;4942311;28;20039;-69
2023/07/04 04:59:50;;;;;;;19.83;2.90;;;;;;;;;;4920031;28;20847;-69
2023/07/04 05:02:15;;;;;;;22.17;3.33;;;;;;;;;;4940532;28;20185;-70
2023/07/04 05:04:40;;;;;;;17.83;3.13;;;;;;;;;;4938620;28;20035;-69
2023/07/04 05:07:05;;;;;;;20.50;3.72;;;;;;;;;;4940557;28;20057;-69
2023/07/04 05:09:31;;;;;;;22.48;3.50;;;;;;;;;;4938026;28;20053;-71
2023/07/04 05:11:56;;;;;;;21.42;3.20;;;;;;;;;;4927879;28;20542;-71
2023/07/04 05:14:22;;;;;;;15.27;2.92;;;;;;;;;;4935717;28;20427;-69
2023/07/04 05:16:47;;;;;;;20.90;3.28;;;;;;;;;;4951578;28;20096;-69
2023/07/04 05:19:12;;;;;;;16.23;3.25;;;;;;;;;;4944568;28;20035;-68
2023/07/04 05:21:38;;;;;;;14.05;3.08;;;;;;;;;;4944606;28;20039;-68
2023/07/04 05:24:05;;;;;;;21.90;3.35;;;;;;;;;;4945202;28;20731;-69
2023/07/04 05:26:31;;;;;;;19.52;3.47;;;;;;;;;;4945298;28;20047;-70
2023/07/04 05:28:58;;;;;;;21.08;3.20;;;;;;;;;;4951788;28;20073;-70
2023/07/04 05:31:27;;;;;;;19.98;3.40;;;;;;;;;;4947843;28;20117;-69
2023/07/04 05:33:53;;;;;;;17.52;2.78;;;;;;;;;;4950012;28;20607;-70
2023/07/04 05:36:21;;;;;;;22.20;3.50;;;;;;;;;;4942089;28;20039;-73
2023/07/04 05:38:47;;;;;;;21.48;3.25;;;;;;;;;;4923211;28;20156;-69
2023/07/04 05:41:13;;;;;;;18.55;3.00;;;;;;;;;;4941405;28;20042;-72
2023/07/04 05:43:40;;;;;;;17.23;3.35;;;;;;;;;;4947647;28;20035;-68
2023/07/04 05:46:05;;;;;;;24.00;3.72;;;;;;;;;;4928763;28;22324;-68
2023/07/04 05:48:31;;;;;;;17.30;3.25;;;;;;;;;;4941089;28;20039;-69
2023/07/04 05:51:00;;;;;;;19.45;3.30;;;;;;;;;;4944185;28;20066;-70
2023/07/04 05:53:26;;;;;;;22.73;3.85;;;;;;;;;;4929483;28;20049;-69
2023/07/04 05:55:52;;;;;;;17.52;3.08;;;;;;;;;;4944218;28;20046;-69
2023/07/04 05:58:17;;;;;;;22.60;3.67;;;;;;;;;;4938679;28;20045;-71
2023/07/04 06:00:43;;;;;;;18.23;2.78;;;;;;;;;;4950304;28;20046;-70
2023/07/04 06:03:08;;;;;;;22.63;3.55;;;;;;;;;;4950836;28;20030;-71
2023/07/04 06:05:40;;;;;;;20.17;2.92;;;;;;;;;;4951207;28;20124;-70
2023/07/04 06:08:06;;;;;;;22.38;3.63;;;;;;;;;;4954717;28;20569;-71
2023/07/04 06:10:32;;;;;;;22.60;3.13;;;;;;;;;;4951563;28;20039;-69
2023/07/04 06:12:57;;;;;;;15.45;3.22;;;;;;;;;;4956240;28;20041;-71
2023/07/04 06:15:22;;;;;;;18.35;3.08;;;;;;;;;;4932679;28;20038;-72
2023/07/04 06:17:48;;;;;;;21.20;3.75;;;;;;;;;;4948748;28;20057;-69
2023/07/04 06:20:13;;;;;;;20.27;3.47;;;;;;;;;;4947411;28;21116;-70
2023/07/04 06:22:38;;;;;;;19.02;3.33;;;;;;;;;;4945321;28;20030;-70
2023/07/04 06:25:04;;;;;;;21.33;3.70;;;;;;;;;;4930791;28;20031;-71
2023/07/04 06:27:30;;;;;;;16.42;3.03;;;;;;;;;;4946370;28;20129;-70
2023/07/04 06:29:55;;;;;;;29.60;3.60;;;;;;;;;;4947223;28;20432;-72
2023/07/04 06:32:21;;;;;;;22.35;3.40;;;;;;;;;;4950100;28;20062;-71
2023/07/04 06:34:46;;;;;;;16.92;2.92;;;;;;;;;;4922708;28;20043;-70
2023/07/04 06:37:14;;;;;;;18.83;3.72;;;;;;;;;;4930287;28;20704;-71
2023/07/04 06:39:39;;;;;;;17.38;3.30;;;;;;;;;;4941516;28;20035;-72
2023/07/04 06:42:05;;;;;;;17.73;3.45;;;;;;;;;;4943432;28;20032;-71
2023/07/04 06:44:30;;;;;;;20.92;3.47;;;;;;;;;;4939899;28;20732;-70
2023/07/04 06:46:55;;;;;;;18.90;3.65;;;;;;;;;;4940647;28;20121;-71
2023/07/04 06:49:21;;;;;;;19.77;3.10;;;;;;;;;;4937044;28;20062;-70
2023/07/04 06:51:46;;;;;;;20.73;3.58;;;;;;;;;;4945143;28;20035;-69
2023/07/04 06:54:12;;;;;;;19.60;2.92;;;;;;;;;;4941512;28;20091;-71
2023/07/04 06:56:38;;;;;;;22.27;3.83;;;;;;;;;;4942767;28;20106;-70
2023/07/04 06:59:03;;;;;;;20.05;3.75;;;;;;;;;;4926932;28;20142;-70
2023/07/04 07:01:29;;;;;;;24.45;3.80;;;;;;;;;;4920490;28;20066;-70
2023/07/04 07:03:55;;;;;;;16.40;3.45;;;;;;;;;;4920458;28;20047;-71
2023/07/04 07:06:21;;;;;;;20.00;3.47;;;;;;;;;;4943317;28;20054;-70
2023/07/04 07:08:46;;;;;;;26.83;3.90;;;;;;;;;;4941962;28;20748;-69
2023/07/04 07:11:14;;;;;;;22.20;3.38;;;;;;;;;;4944717;28;20125;-71
2023/07/04 07:13:40;;;;;;;20.02;2.90;;;;;;;;;;4942917;28;20897;-72
2023/07/04 07:16:05;;;;;;;22.83;3.15;;;;;;;;;;4925453;28;20036;-70
2023/07/04 07:18:32;;;;;;;23.67;3.13;;;;;;;;;;4947985;28;20050;-69
2023/07/04 07:20:58;;;;;;;23.20;3.90;;;;;;;;;;4946615;28;20042;-72
2023/07/04 07:23:23;;;;;;;23.38;3.67;;;;;;;;;;4948769;28;20050;-70
2023/07/04 07:25:59;;;;;;;25.58;3.88;;;;;;;;;;4942623;28;20047;-70
2023/07/04 07:28:25;;;;;;;24.73;3.75;;;;;;;;;;4929079;28;20043;-71
2023/07/04 07:31:02;;;;;;;17.58;3.42;;;;;;;;;;4953888;28;20042;-70
2023/07/04 07:33:32;;;;;;;24.20;4.15;;;;;;;;;;4949298;28;20783;-71
2023/07/04 07:35:58;;;;;;;21.40;3.42;;;;;;;;;;4929096;28;20173;-71
2023/07/04 07:38:26;;;;;;;18.50;2.97;;;;;;;;;;4944908;28;20136;-69
2023/07/04 07:40:54;;;;;;;18.25;3.05;;;;;;;;;;4943137;28;20039;-71
2023/07/04 07:43:20;;;;;;;19.70;3.92;;;;;;;;;;4946582;28;20906;-71
2023/07/04 07:45:46;;;;;;;19.30;3.63;;;;;;;;;;4927289;28;20046;-69
2023/07/04 07:48:14;;;;;;;23.33;3.58;;;;;;;;;;4942044;28;20104;-69
2023/07/04 07:50:40;;;;;;;12.32;2.50;;;;;;;;;;4944796;28;20039;-70
2023/07/04 07:53:06;;;;;;;21.73;3.28;;;;;;;;;;4927026;28;21799;-65
2023/07/04 07:55:31;;;;;;;15.23;2.88;;;;;;;;;;4939940;28;20508;-64
2023/07/04 07:57:56;;;;;;;25.25;3.22;;;;;;;;;;4940156;28;20034;-65
2023/07/04 08:00:21;;;;;;;33.25;3.75;;;;;;;;;;4942172;28;20094;-64
2023/07/04 08:02:47;;;;;;;21.40;4.30;;;;;;;;;;4921729;28;20058;-65
2023/07/04 08:05:12;;;;;;;18.27;3.33;;;;;;;;;;4918848;28;20113;-64
2023/07/04 08:07:38;;;;;;;22.88;4.60;;;;;;;;;;4942190;28;20043;-63
2023/07/04 08:10:05;;;;;;;20.95;3.53;;;;;;;;;;4941981;28;20035;-63
2023/07/04 08:12:35;;;;;;;24.27;3.00;;;;;;;;;;4920079;28;20117;-64
2023/07/04 08:15:00;;;;;;;24.50;3.78;;;;;;;;;;4921415;28;20046;-66
2023/07/04 08:17:26;;;;;;;22.02;3.65;;;;;;;;;;4919196;28;20652;-65
2023/07/04 08:19:51;;;;;;;22.20;3.20;;;;;;;;;;4941668;28;20042;-68
2023/07/04 08:22:17;;;;;;;25.48;3.55;;;;;;;;;;4941813;28;20694;-66
2023/07/04 08:24:42;;;;;;;21.73;2.78;;;;;;;;;;4941315;28;20059;-65
2023/07/04 08:27:07;;;;;;;28.17;3.85;;;;;;;;;;4940666;28;22205;-65
2023/07/04 08:29:35;;;;;;;23.08;3.85;;;;;;;;;;4941811;28;20943;-63
2023/07/04 08:32:01;;;;;;;25.60;3.67;;;;;;;;;;4918386;28;20034;-64
2023/07/04 08:34:26;;;;;;;19.13;3.40;;;;;;;;;;4941293;28;20254;-66
2023/07/04 08:36:51;;;;;;;20.83;3.03;;;;;;;;;;4920830;28;20110;-65
2023/07/04 08:39:18;;;;;;;19.40;3.45;;;;;;;;;;4927401;28;20121;-64
2023/07/04 08:41:43;;;;;;;17.77;3.75;;;;;;;;;;4920353;28;20523;-64
2023/07/04 08:44:08;;;;;;;30.05;4.40;;;;;;;;;;4940914;28;20043;-64
2023/07/04 08:46:39;;;;;;;18.73;3.45;;;;;;;;;;4935376;28;20042;-63
2023/07/04 08:49:04;;;;;;;20.20;3.47;;;;;;;;;;4937408;28;20435;-66
2023/07/04 08:51:34;;;;;;;28.42;3.78;;;;;;;;;;4941545;28;20035;-64
2023/07/04 08:54:01;;;;;;;32.10;3.72;;;;;;;;;;4941514;28;20130;-64
2023/07/04 08:56:34;;;;;;;20.73;3.40;;;;;;;;;;4939300;28;20046;-65
2023/07/04 08:59:04;;;;;;;36.72;4.53;;;;;;;;;;4940254;28;20526;-65
2023/07/04 09:01:46;;;;;;;25.02;4.07;;;;;;;;;;4937410;28;20140;-64
2023/07/04 09:04:18;;;;;;;26.67;3.63;;;;;;;;;;4941544;28;20066;-64
2023/07/04 09:06:50;;;;;;;26.85;4.28;;;;;;;;;;4906745;28;20054;-65
2023/07/04 09:09:15;;;;;;;;;;;;;;;;;;4927152;28;20039;-65
2023/07/04 09:11:41;;;;;;;22.10;3.67;;;;;;;;;;4940875;28;19918;-64
2023/07/04 09:14:19;;;;;;;23.40;3.63;;;;;;;;;;4921654;28;20317;-63
2023/07/04 09:16:48;;;;;;;18.30;3.40;;;;;;;;;;4938893;28;20852;-65
2023/07/04 09:19:18;;;;;;;25.30;3.75;;;;;;;;;;4918763;28;20042;-65
2023/07/04 09:21:44;;;;;;;24.63;3.75;;;;;;;;;;4940181;28;20208;-66
2023/07/04 09:24:12;;;;;;;20.77;3.65;;;;;;;;;;4918708;28;20506;-62
2023/07/04 09:26:49;;;;;;;21.20;3.78;;;;;;;;;;4922646;28;20043;-63
2023/07/04 09:29:20;;;;;;;18.98;3.55;;;;;;;;;;4938320;28;20027;-65
2023/07/04 09:31:46;;;;;;;20.10;3.20;;;;;;;;;;4928467;28;21817;-65
2023/07/04 09:34:21;;;;;;;23.25;3.75;;;;;;;;;;4941050;28;20038;-64
2023/07/04 09:36:47;;;;;;;18.65;3.15;;;;;;;;;;4939755;28;20669;-65
2023/07/04 09:39:13;;;;;;;31.35;5.10;;;;;;;;;;4918639;28;20589;-65
2023/07/04 09:41:39;;;;;;;31.13;3.97;;;;;;;;;;4940453;28;20480;-64
2023/07/04 09:44:16;;;;;;;21.02;3.58;;;;;;;;;;4921390;28;20042;-65
2023/07/04 09:46:51;;;;;;;23.40;4.00;;;;;;;;;;4938522;28;20920;-65
2023/07/04 09:49:22;;;;;;;22.45;3.50;;;;;;;;;;4939656;28;20062;-67
2023/07/04 09:52:01;;;;;;;24.92;4.03;;;;;;;;;;4938914;28;20057;-65
2023/07/04 09:54:27;;;;;;;27.02;3.72;;;;;;;;;;4922191;28;20915;-64
2023/07/04 09:56:53;;;;;;;26.38;4.57;;;;;;;;;;4938789;28;20047;-65
2023/07/04 09:59:21;;;;;;;24.35;3.65;;;;;;;;;;4939865;28;20065;-66
2023/07/04 10:01:48;;;;;;;24.00;3.97;;;;;;;;;;4938202;28;20043;-65
2023/07/04 10:04:21;;;;;;;34.20;4.55;;;;;;;;;;4922763;28;20089;-65
2023/07/04 10:06:50;;;;;;;25.40;4.53;;;;;;;;;;4939053;28;20124;-68
2023/07/04 10:09:20;;;;;;;27.17;3.88;;;;;;;;;;4939815;28;20034;-64
2023/07/04 10:11:47;;;;;;;25.77;3.90;;;;;;;;;;4921096;28;20085;-64
2023/07/04 10:14:14;;;;;;;18.38;3.38;;;;;;;;;;4918489;28;21765;-64
2023/07/04 10:16:45;;;;;;;20.00;3.60;;;;;;;;;;4925327;28;20650;-62
2023/07/04 10:19:10;;;;;;;;;;;;;;;;;;4938484;28;20041;-63
2023/07/04 10:21:40;;;;;;;21.42;3.42;;;;;;;;;;4941240;28;19914;-65
2023/07/04 10:24:07;;;;;;;29.77;3.53;;;;;;;;;;4939532;28;20042;-65
2023/07/04 10:26:33;;;;;;;12.88;3.20;;;;;;;;;;4939936;28;20754;-67
2023/07/04 10:28:58;;;;;;;19.67;3.67;;;;;;;;;;4936217;28;20042;-64
2023/07/04 10:31:23;;;;;;;20.92;4.20;;;;;;;;;;4938284;28;20144;-64
2023/07/04 10:33:55;;;;;;;24.85;4.38;;;;;;;;;;4938172;28;20035;-66
2023/07/04 10:36:26;;;;;;;21.95;3.75;;;;;;;;;;4939553;28;20042;-65
2023/07/04 10:38:52;;;;;;;;;;;;;;;;;;4935901;28;20042;-65
2023/07/04 10:41:29;;;;;;;18.15;3.58;;;;;;;;;;4936896;28;19918;-65
2023/07/04 10:43:59;;;;;;;21.15;3.80;;;;;;;;;;4937145;28;20027;-64
2023/07/04 10:46:28;;;;;;;16.55;3.38;;;;;;;;;;4937808;28;20061;-65
2023/07/04 10:49:00;;;;;;;35.15;4.18;;;;;;;;;;4916395;28;20063;-65
2023/07/04 10:51:28;;;;;;;18.60;3.55;;;;;;;;;;4920851;28;20704;-64
2023/07/04 10:53:54;;;;;;;22.80;3.42;;;;;;;;;;4937750;28;20043;-64
2023/07/04 10:56:22;;;;;;;21.45;3.70;;;;;;;;;;4939547;28;20523;-65
2023/07/04 10:58:48;;;;;;;19.90;3.67;;;;;;;;;;4938754;28;20038;-66
2023/07/04 11:01:16;;;;;;;22.10;3.92;;;;;;;;;;4938889;28;20034;-64
2023/07/04 11:03:46;;;;;;;25.42;3.78;;;;;;;;;;4931355;28;20241;-66
2023/07/04 11:06:32;;;;;;;28.05;4.47;;;;;;;;;;4936059;28;20527;-66
2023/07/04 11:09:00;;;;;;;21.48;3.35;;;;;;;;;;4936063;28;20031;-65
2023/07/04 11:11:29;;;;;;;28.58;3.50;;;;;;;;;;4936403;28;20471;-65
2023/07/04 11:13:55;;;;;;;27.08;4.43;;;;;;;;;;4936730;28;20102;-65
2023/07/04 11:16:27;;;;;;;22.73;3.15;;;;;;;;;;4918340;28;20411;-64
2023/07/04 11:19:15;;;;;;;17.75;3.38;;;;;;;;;;4936541;28;20050;-63
2023/07/04 11:22:00;;;;;;;16.15;3.13;;;;;;;;;;4923951;28;20063;-65
2023/07/04 11:24:32;;;;;;;24.25;3.10;;;;;;;;;;4935244;28;20607;-65
2023/07/04 11:27:01;;;;;;;28.15;4.25;;;;;;;;;;4936736;28;20081;-66
2023/07/04 11:29:43;;;;;;;18.10;2.95;;;;;;;;;;4937477;28;20040;-66
2023/07/04 11:32:09;;;;;;;17.33;2.83;;;;;;;;;;4913972;28;20043;-65
2023/07/04 11:35:10;;;;;;;20.40;3.13;;;;;;;;;;4918522;28;20069;-64
2023/07/04 11:37:40;;;;;;;47.35;5.20;;;;;;;;;;4886496;28;20102;-65
2023/07/04 11:40:18;;;;;;;17.10;2.85;;;;;;;;;;4936959;28;20419;-64
2023/07/04 11:42:45;;;;;;;54.28;6.72;;;;;;;;;;4935201;28;20030;-64
2023/07/04 11:45:15;;;;;;;27.65;3.20;;;;;;;;;;4936341;28;20437;-67
2023/07/04 11:47:42;;;;;;;64.43;5.85;;;;;;;;;;4934828;28;20053;-67
2023/07/04 11:50:19;;;;;;;26.05;3.50;;;;;;;;;;4918468;28;20132;-66
2023/07/04 11:52:49;;;;;;;19.75;3.33;;;;;;;;;;4938735;28;20740;-64
2023/07/04 11:55:16;;;;;;;22.63;3.03;;;;;;;;;;4939285;28;20207;-67
2023/07/04 11:58:20;;;;;;;50.72;4.80;;;;;;;;;;4940504;28;20408;-66
2023/07/04 12:00:48;;;;;;;34.15;4.28;;;;;;;;;;4852807;29;20083;-65
2023/07/04 12:03:16;;;;;;;28.92;4.18;;;;;;;;;;4840040;29;20656;-65
2023/07/04 12:05:42;;;;;;;30.50;3.47;;;;;;;;;;4894888;28;20511;-64
2023/07/04 12:08:10;;;;;;;33.25;4.47;;;;;;;;;;4940980;28;20042;-66
2023/07/04 12:10:36;;;;;;;21.17;3.38;;;;;;;;;;4939078;28;20035;-64
2023/07/04 12:13:02;;;;;;;23.75;3.60;;;;;;;;;;4939683;28;20230;-63
2023/07/04 12:15:32;;;;;;;15.30;2.70;;;;;;;;;;4939495;28;20058;-65
2023/07/04 12:18:12;;;;;;;19.30;3.15;;;;;;;;;;4937962;28;20031;-64
2023/07/04 12:20:40;;;;;;;17.20;2.80;;;;;;;;;;4939955;28;22600;-67
2023/07/04 12:23:09;;;;;;;23.92;3.30;;;;;;;;;;4942169;28;20031;-65
2023/07/04 12:25:34;;;;;;;24.65;3.80;;;;;;;;;;4940075;28;20035;-65
2023/07/04 12:28:03;;;;;;;17.40;3.15;;;;;;;;;;4941893;28;20077;-66
2023/07/04 12:30:31;;;;;;;23.02;3.60;;;;;;;;;;4918471;28;22034;-64
2023/07/04 12:32:56;;;;;;;26.75;4.07;;;;;;;;;;4938111;28;22545;-64
2023/07/04 12:35:35;;;;;;;18.50;2.78;;;;;;;;;;4920318;28;20159;-65
2023/07/04 12:38:02;;;;;;;18.98;3.63;;;;;;;;;;4917075;28;20031;-65
2023/07/04 12:40:29;;;;;;;19.92;3.30;;;;;;;;;;4937028;28;20041;-65
2023/07/04 12:42:56;;;;;;;12.43;2.83;;;;;;;;;;4937266;28;20076;-65
2023/07/04 12:45:25;;;;;;;18.10;3.05;;;;;;;;;;4914801;28;20031;-64
2023/07/04 12:47:52;;;;;;;15.30;2.78;;;;;;;;;;4935693;28;20050;-63
2023/07/04 12:50:18;;;;;;;18.25;2.47;;;;;;;;;;4936777;28;20093;-66
2023/07/04 12:52:44;;;;;;;20.77;3.05;;;;;;;;;;4936790;28;20092;-65
2023/07/04 12:55:18;;;;;;;19.17;2.80;;;;;;;;;;4937757;28;20057;-66
2023/07/04 12:57:43;;;;;;;29.15;3.22;;;;;;;;;;4938025;28;20039;-65
2023/07/04 13:00:24;;;;;;;18.40;3.00;;;;;;;;;;4937217;28;20130;-65
2023/07/04 13:02:50;;;;;;;18.38;3.72;;;;;;;;;;4918782;28;20043;-63
2023/07/04 13:05:16;;;;;;;14.50;2.70;;;;;;;;;;4938260;28;20039;-65
2023/07/04 13:07:47;;;;;;;15.85;2.90;;;;;;;;;;4936991;28;20043;-64
2023/07/04 13:10:19;;;;;;;16.48;3.53;;;;;;;;;;4934979;28;20923;-64
2023/07/04 13:12:44;;;;;;;25.05;3.55;;;;;;;;;;4915754;28;20034;-65
2023/07/04 13:15:19;;;;;;;16.30;2.88;;;;;;;;;;4935648;28;20035;-63
2023/07/04 13:17:52;;;;;;;19.58;3.13;;;;;;;;;;4919317;28;20150;-63
2023/07/04 13:20:19;;;;;;;22.67;3.45;;;;;;;;;;4940041;28;20109;-69
2023/07/04 13:22:45;;;;;;;20.00;3.38;;;;;;;;;;4941707;28;21093;-69
2023/07/04 13:25:20;;;;;;;21.25;3.47;;;;;;;;;;4941865;28;20055;-70
2023/07/04 13:27:46;;;;;;;23.42;3.83;;;;;;;;;;4945110;28;20992;-70
2023/07/04 13:30:23;;;;;;;22.35;3.80;;;;;;;;;;4921563;28;20035;-70
2023/07/04 13:32:48;;;;;;;18.65;3.03;;;;;;;;;;4941782;28;20583;-69
2023/07/04 13:35:32;;;;;;;18.52;3.08;;;;;;;;;;4941342;28;20045;-71
2023/07/04 13:37:58;;;;;;;18.80;3.15;;;;;;;;;;4940530;28;20676;-70
2023/07/04 13:40:24;;;;;;;17.45;2.95;;;;;;;;;;4937390;28;20039;-70
2023/07/04 13:43:02;;;;;;;23.27;3.50;;;;;;;;;;4939250;28;20047;-71
2023/07/04 13:45:27;;;;;;;24.95;3.40;;;;;;;;;;4935112;28;20058;-70
2023/07/04 13:47:52;;;;;;;16.05;3.45;;;;;;;;;;4941022;28;20035;-71
2023/07/04 13:50:18;;;;;;;20.20;3.35;;;;;;;;;;4940149;28;20031;-71
2023/07/04 13:52:46;;;;;;;16.75;2.75;;;;;;;;;;4923824;28;22753;-69
2023/07/04 13:55:11;;;;;;;16.08;3.33;;;;;;;;;;4939448;28;21208;-71
2023/07/04 13:57:37;;;;;;;19.52;3.22;;;;;;;;;;4939758;28;20051;-69
2023/07/04 14:00:02;;;;;;;21.35;3.63;;;;;;;;;;4941437;28;20125;-69
2023/07/04 14:02:28;;;;;;;17.60;2.60;;;;;;;;;;4943129;28;20035;-69
2023/07/04 14:04:53;;;;;;;19.15;3.38;;;;;;;;;;4937042;28;22273;-73
2023/07/04 14:07:21;;;;;;;20.13;3.28;;;;;;;;;;4936082;28;20045;-71
2023/07/04 14:09:46;;;;;;;16.80;3.08;;;;;;;;;;4914295;28;20134;-70
2023/07/04 14:12:11;;;;;;;14.38;2.90;;;;;;;;;;4915555;28;20929;-68
2023/07/04 14:14:37;;;;;;;16.98;3.80;;;;;;;;;;4938529;28;20218;-70
2023/07/04 14:17:02;;;;;;;28.63;3.50;;;;;;;;;;4943043;28;20043;-71
2023/07/04 14:19:27;;;;;;;15.73;2.55;;;;;;;;;;4943467;28;20846;-69
2023/07/04 14:21:53;;;;;;;16.38;2.70;;;;;;;;;;4934137;28;20065;-70
2023/07/04 14:24:18;;;;;;;22.50;2.90;;;;;;;;;;4913262;28;20145;-69
2023/07/04 14:26:44;;;;;;;18.50;2.72;;;;;;;;;;4921734;28;20136;-70
2023/07/04 14:29:09;;;;;;;15.40;2.83;;;;;;;;;;4921711;28;20035;-73
2023/07/04 14:31:35;;;;;;;19.33;3.05;;;;;;;;;;4936862;28;20039;-70
2023/07/04 14:34:01;;;;;;;15.98;2.75;;;;;;;;;;4935519;28;20035;-71